Time;durP1;ratioP1;P1;durP2;ratioP2;P2;SDS_P1;SDS_P2;PMS_P1;PMS_P2;Temp;Humidity;BMP_temperature;BMP_pressure;BME280_temperature;BME280_humidity;BME280_pressure;Samples;Min_cycle;Max_cycle;Signal;HPM_P1;HPM_P2
2021/09/09 00:02:25;;;;;;;31.77;20.27;;;;;;;18.17;73.36;101118.75;5008679;28;20034;-77
2021/09/09 00:04:50;;;;;;;22.85;19.95;;;;;;;18.32;72.35;101123.03;5010440;28;20037;-77
2021/09/09 00:07:15;;;;;;;27.77;20.80;;;;;;;18.35;72.23;101125.44;5012053;28;20325;-78
2021/09/09 00:09:41;;;;;;;27.05;19.85;;;;;;;18.39;72.17;101126.09;4991145;28;20038;-77
2021/09/09 00:12:06;;;;;;;22.88;19.80;;;;;;;18.51;71.71;101121.75;5004615;28;20025;-77
2021/09/09 00:14:32;;;;;;;27.08;20.27;;;;;;;18.47;71.24;101114.97;4993235;28;20691;-79
2021/09/09 00:16:58;;;;;;;29.33;21.40;;;;;;;18.49;71.20;101113.06;5010281;28;20025;-77
2021/09/09 00:19:23;;;;;;;24.52;20.52;;;;;;;18.60;70.78;101113.16;5009919;28;20454;-77
2021/09/09 00:21:49;;;;;;;22.77;20.15;;;;;;;18.45;71.62;101120.38;5007003;28;20030;-77
2021/09/09 00:24:14;;;;;;;23.58;19.83;;;;;;;18.52;70.98;101111.03;5024056;28;20036;-77
2021/09/09 00:26:39;;;;;;;27.40;20.25;;;;;;;18.52;70.64;101112.81;5020548;28;20026;-79
2021/09/09 00:29:05;;;;;;;27.20;21.00;;;;;;;18.47;70.90;101102.56;5026559;28;20056;-79
2021/09/09 00:31:30;;;;;;;25.30;21.10;;;;;;;18.35;71.84;101100.75;5012459;28;20037;-79
2021/09/09 00:33:56;;;;;;;27.55;21.05;;;;;;;18.40;71.26;101095.97;5008155;28;20034;-79
2021/09/09 00:36:22;;;;;;;27.58;21.38;;;;;;;18.37;71.56;101098.84;5018507;28;20036;-80
2021/09/09 00:38:47;;;;;;;33.47;22.25;;;;;;;18.30;71.88;101100.22;5022779;28;20268;-80
2021/09/09 00:41:12;;;;;;;24.20;20.70;;;;;;;18.28;71.62;101102.13;5001202;28;20268;-79
2021/09/09 00:43:38;;;;;;;28.50;21.88;;;;;;;18.11;72.27;101103.28;5006892;28;20241;-80
2021/09/09 00:46:03;;;;;;;26.88;21.85;;;;;;;18.02;72.80;101089.69;4989672;28;20025;-79
2021/09/09 00:48:29;;;;;;;32.70;22.25;;;;;;;17.67;74.09;101093.88;5025808;28;20208;-79
2021/09/09 00:50:54;;;;;;;29.60;23.27;;;;;;;17.72;74.02;101089.97;5021406;28;20040;-79
2021/09/09 00:53:20;;;;;;;31.10;23.17;;;;;;;17.84;73.55;101082.97;4973732;28;20328;-79
2021/09/09 00:55:47;;;;;;;29.25;23.80;;;;;;;17.81;73.64;101083.19;5009472;28;20044;-79
2021/09/09 00:58:13;;;;;;;29.75;23.98;;;;;;;17.51;74.81;101068.38;5009483;28;20029;-79
2021/09/09 01:04:00;;;;;;;30.60;23.25;;;;;;;17.50;75.05;101073.78;5029724;28;20209;-81
2021/09/09 01:06:25;;;;;;;28.90;23.88;;;;;;;17.51;74.81;101072.84;5038523;28;20034;-81
2021/09/09 01:08:50;;;;;;;31.17;23.90;;;;;;;17.52;74.64;101059.50;4990950;28;20029;-81
2021/09/09 01:11:16;;;;;;;33.47;24.02;;;;;;;17.30;75.45;101068.03;4991491;28;20341;-81
2021/09/09 01:13:51;;;;;;;32.38;24.63;;;;;;;17.55;74.82;101063.75;5007936;28;20084;-81
2021/09/09 01:16:16;;;;;;;36.55;25.20;;;;;;;17.49;74.75;101059.69;5011420;28;20029;-81
2021/09/09 01:18:42;;;;;;;31.33;24.58;;;;;;;17.23;75.47;101061.44;5010544;28;20036;-82
2021/09/09 01:21:07;;;;;;;28.35;24.10;;;;;;;17.33;75.46;101056.38;5017435;28;20022;-81
2021/09/09 01:23:33;;;;;;;32.78;25.40;;;;;;;17.30;75.24;101057.44;4995838;28;20101;-81
2021/09/09 01:25:58;;;;;;;34.97;25.27;;;;;;;17.24;75.66;101052.53;4975552;28;20022;-81
2021/09/09 01:28:24;;;;;;;31.38;25.27;;;;;;;17.10;76.39;101053.44;5024434;28;20046;-81
2021/09/09 01:30:49;;;;;;;34.22;25.92;;;;;;;17.14;76.06;101056.72;5006164;28;20025;-81
2021/09/09 01:33:15;;;;;;;34.65;25.38;;;;;;;17.14;75.81;101048.78;4992471;28;20031;-81
2021/09/09 01:35:40;;;;;;;34.05;26.13;;;;;;;16.96;77.08;101046.38;4974698;28;20057;-81
2021/09/09 01:38:26;;;;;;;32.33;26.13;;;;;;;17.03;76.23;101049.50;4998108;28;20033;-81
2021/09/09 01:40:51;;;;;;;36.83;26.55;;;;;;;17.15;75.63;101047.81;5004959;28;20026;-81
2021/09/09 01:43:17;;;;;;;32.20;26.20;;;;;;;17.13;75.68;101050.56;5007890;28;20047;-81
2021/09/09 01:45:42;;;;;;;32.10;24.98;;;;;;;17.42;74.65;101061.91;4990316;28;20260;-81
2021/09/09 01:48:08;;;;;;;34.83;25.33;;;;;;;17.09;75.59;101057.03;5005159;28;20064;-81
2021/09/09 01:50:33;;;;;;;33.70;25.65;;;;;;;16.90;76.41;101052.06;4989393;28;20096;-81
2021/09/09 01:52:59;;;;;;;37.55;25.77;;;;;;;17.04;75.17;101052.00;5009983;28;20041;-81
2021/09/09 01:55:24;;;;;;;34.50;25.77;;;;;;;16.95;75.82;101057.06;5016393;28;20037;-81
2021/09/09 01:57:49;;;;;;;38.13;25.75;;;;;;;17.09;75.35;101049.09;5007416;28;20037;-81
2021/09/09 02:00:15;;;;;;;30.80;24.88;;;;;;;17.19;75.07;101057.25;5008600;28;20042;-82
2021/09/09 02:02:41;;;;;;;34.10;25.80;;;;;;;17.19;74.65;101051.97;4980109;28;20029;-81
2021/09/09 02:05:06;;;;;;;30.73;24.60;;;;;;;17.21;74.80;101045.66;5003833;28;20328;-81
2021/09/09 02:07:32;;;;;;;37.08;26.23;;;;;;;17.13;75.13;101053.22;4990789;28;20040;-81
2021/09/09 02:09:57;;;;;;;36.78;25.52;;;;;;;17.30;74.17;101056.56;5006219;28;20037;-81
2021/09/09 02:12:23;;;;;;;32.35;24.88;;;;;;;17.21;74.21;101050.09;5007056;28;20099;-82
2021/09/09 02:14:48;;;;;;;28.13;24.52;;;;;;;17.13;74.18;101047.94;5025038;28;20026;-82
2021/09/09 02:17:13;;;;;;;32.95;24.92;;;;;;;17.24;73.66;101047.22;4991888;28;20034;-81
2021/09/09 02:19:39;;;;;;;30.63;25.55;;;;;;;17.29;73.71;101061.00;4992997;28;20022;-81
2021/09/09 02:22:04;;;;;;;34.28;24.70;;;;;;;17.10;74.12;101056.09;5006568;28;20355;-81
2021/09/09 02:24:30;;;;;;;33.00;24.70;;;;;;;17.15;73.87;101053.97;5023297;28;20065;-81
2021/09/09 02:26:55;;;;;;;31.13;25.05;;;;;;;17.07;74.13;101049.19;5005808;28;20044;-81
2021/09/09 02:29:21;;;;;;;29.30;24.27;;;;;;;17.13;73.78;101045.28;5005548;28;20061;-82
2021/09/09 02:31:46;;;;;;;36.05;25.38;;;;;;;17.05;73.65;101053.72;5004082;28;20325;-82
2021/09/09 02:34:11;;;;;;;31.55;24.38;;;;;;;16.99;74.18;101053.25;5003633;28;20348;-81
2021/09/09 02:36:37;;;;;;;31.90;24.67;;;;;;;16.85;74.61;101056.81;4989333;28;20040;-82
2021/09/09 02:39:02;;;;;;;33.65;25.98;;;;;;;16.77;74.97;101045.81;4998441;28;20353;-82
2021/09/09 02:41:28;;;;;;;33.42;25.48;;;;;;;16.84;75.06;101048.00;5004990;28;20026;-81
2021/09/09 02:43:53;;;;;;;36.67;26.35;;;;;;;16.80;75.56;101050.91;5002755;28;20045;-81
2021/09/09 02:46:19;;;;;;;36.58;26.58;;;;;;;16.70;75.92;101037.44;5024084;28;20029;-81
2021/09/09 02:48:44;;;;;;;37.63;25.45;;;;;;;16.67;75.94;101040.28;5004480;28;20037;-78
2021/09/09 02:51:10;;;;;;;35.38;26.52;;;;;;;16.73;75.93;101036.38;5023178;28;20264;-79
2021/09/09 02:53:35;;;;;;;32.97;26.52;;;;;;;16.69;75.64;101030.44;5015794;28;20050;-78
2021/09/09 02:56:00;;;;;;;34.08;25.45;;;;;;;16.59;75.93;101030.19;5003193;28;20059;-79
2021/09/09 02:58:26;;;;;;;37.17;26.75;;;;;;;16.66;75.80;101027.97;4988040;28;20075;-79
2021/09/09 03:00:51;;;;;;;31.35;26.25;;;;;;;16.73;75.37;101033.75;5004582;28;20030;-79
2021/09/09 03:03:17;;;;;;;35.35;26.15;;;;;;;16.49;76.30;101029.06;5007329;28;20029;-78
2021/09/09 03:05:42;;;;;;;34.38;27.10;;;;;;;16.56;76.29;101027.72;4973733;28;20036;-78
2021/09/09 03:08:08;;;;;;;37.22;26.52;;;;;;;16.55;76.35;101019.88;4989553;28;20263;-79
2021/09/09 03:10:33;;;;;;;33.78;27.35;;;;;;;16.46;76.71;101016.88;5024024;28;20033;-79
2021/09/09 03:12:59;;;;;;;34.03;27.00;;;;;;;16.41;76.66;101015.44;5006847;28;20033;-78
2021/09/09 03:15:25;;;;;;;36.83;27.88;;;;;;;16.43;76.39;101011.78;5003751;28;20033;-79
2021/09/09 03:17:50;;;;;;;37.75;26.88;;;;;;;16.39;76.83;101005.00;4972108;28;20037;-79
2021/09/09 03:20:16;;;;;;;37.22;27.05;;;;;;;16.37;76.80;101004.25;5011450;28;20046;-79
2021/09/09 03:22:41;;;;;;;39.30;26.85;;;;;;;16.35;76.95;100999.97;5013416;28;20116;-78
2021/09/09 03:25:07;;;;;;;34.22;26.15;;;;;;;16.55;76.64;101001.38;5017763;28;20068;-78
2021/09/09 03:27:33;;;;;;;38.00;26.60;;;;;;;16.63;76.24;101007.88;5004596;28;20021;-78
2021/09/09 03:29:58;;;;;;;32.45;26.90;;;;;;;16.53;76.47;101008.56;4995635;28;20045;-79
2021/09/09 03:32:23;;;;;;;34.22;26.60;;;;;;;16.51;76.31;101003.38;5029363;28;20032;-78
2021/09/09 03:34:49;;;;;;;33.38;27.65;;;;;;;16.47;76.31;101013.28;4995631;28;20324;-78
2021/09/09 03:37:14;;;;;;;38.35;28.02;;;;;;;16.37;76.90;101019.22;5019124;28;20335;-78
2021/09/09 03:39:40;;;;;;;37.30;26.65;;;;;;;16.31;76.58;101021.31;5008347;28;20045;-78
2021/09/09 03:42:05;;;;;;;37.85;24.23;;;;;;;16.91;80.48;101022.00;4992204;28;20034;-78
2021/09/09 03:44:31;;;;;;;39.42;27.17;;;;;;;16.64;75.36;101020.13;4998343;28;20045;-78
2021/09/09 03:46:56;;;;;;;33.13;25.77;;;;;;;16.51;75.76;101014.78;5005642;28;20030;-79
2021/09/09 03:49:21;;;;;;;41.88;27.58;;;;;;;16.49;75.65;101021.13;5007685;28;20056;-78
2021/09/09 03:51:47;;;;;;;36.47;26.02;;;;;;;16.46;75.56;101010.72;5008167;28;20032;-78
2021/09/09 03:54:12;;;;;;;35.85;26.50;;;;;;;16.45;75.57;101014.34;5007461;28;20053;-79
2021/09/09 03:56:37;;;;;;;37.42;25.92;;;;;;;16.45;75.22;101012.53;5008106;28;20033;-78
2021/09/09 03:59:03;;;;;;;35.97;24.50;;;;;;;16.76;74.57;101009.75;5007780;28;20052;-78
2021/09/09 04:01:28;;;;;;;31.98;25.30;;;;;;;16.51;74.90;101006.84;4991190;28;20355;-78
2021/09/09 04:03:54;;;;;;;31.83;25.80;;;;;;;16.48;75.35;101004.41;4991630;28;20232;-79
2021/09/09 04:06:21;;;;;;;35.72;25.77;;;;;;;16.52;75.43;101002.44;5010933;28;20324;-78
2021/09/09 04:08:47;;;;;;;34.45;25.40;;;;;;;16.63;76.01;101007.03;5011367;28;20022;-78
2021/09/09 04:11:12;;;;;;;31.67;24.63;;;;;;;16.75;76.16;101008.88;5010787;28;20025;-78
2021/09/09 04:13:37;;;;;;;32.33;24.55;;;;;;;16.62;75.23;101011.47;4989793;28;20030;-79
2021/09/09 04:16:03;;;;;;;31.02;25.02;;;;;;;16.58;74.86;101012.59;5007383;28;20025;-78
2021/09/09 04:18:28;;;;;;;35.45;26.00;;;;;;;16.59;74.93;101000.22;4990916;28;20172;-78
2021/09/09 04:20:54;;;;;;;33.45;24.45;;;;;;;16.39;75.07;100998.84;5006628;28;20038;-78
2021/09/09 04:23:19;;;;;;;35.42;25.30;;;;;;;16.38;75.75;100997.16;5007022;28;20030;-78
2021/09/09 04:25:45;;;;;;;32.90;24.63;;;;;;;16.59;74.87;100994.94;4991242;28;20028;-76
2021/09/09 04:28:10;;;;;;;29.95;24.67;;;;;;;16.38;75.45;100983.94;4991015;28;20052;-79
2021/09/09 04:30:35;;;;;;;32.60;25.17;;;;;;;16.22;75.79;100981.41;5007071;28;20060;-79
2021/09/09 04:33:01;;;;;;;32.13;25.13;;;;;;;16.34;75.54;100980.66;5036684;28;20025;-79
2021/09/09 04:35:26;;;;;;;33.50;25.55;;;;;;;16.05;76.81;100969.25;4989687;28;20037;-79
2021/09/09 04:37:52;;;;;;;35.88;26.83;;;;;;;15.96;77.29;100964.53;5007355;28;20034;-79
2021/09/09 04:40:17;;;;;;;35.60;27.35;;;;;;;15.90;77.91;100956.03;5018319;28;20071;-79
2021/09/09 04:42:43;;;;;;;34.53;26.75;;;;;;;15.96;77.78;100956.59;5009118;28;20224;-80
2021/09/09 04:45:08;;;;;;;40.33;28.40;;;;;;;15.96;78.11;100951.31;5006181;28;20213;-79
2021/09/09 04:47:36;;;;;;;35.22;27.95;;;;;;;16.03;78.03;100956.13;5006197;28;20048;-79
2021/09/09 04:50:02;;;;;;;37.40;27.35;;;;;;;15.85;78.18;100951.97;5030366;28;20045;-79
2021/09/09 04:52:27;;;;;;;41.78;27.52;;;;;;;15.98;77.84;100955.56;4996335;28;20064;-79
2021/09/09 04:54:52;;;;;;;36.67;28.42;;;;;;;15.77;78.36;100952.44;4990643;28;20030;-79
2021/09/09 04:57:18;;;;;;;39.22;27.80;;;;;;;15.81;78.92;100953.97;5026548;28;20052;-79
2021/09/09 04:59:43;;;;;;;38.90;29.17;;;;;;;15.79;78.49;100952.34;5022379;28;20277;-79
2021/09/09 05:02:09;;;;;;;40.75;29.63;;;;;;;15.62;79.03;100955.97;4989063;28;20034;-79
2021/09/09 05:04:34;;;;;;;42.13;28.90;;;;;;;15.67;78.58;100954.75;4991453;28;20043;-79
2021/09/09 05:06:59;;;;;;;36.92;27.73;;;;;;;15.64;79.01;100956.72;4999309;28;20049;-78
2021/09/09 05:09:25;;;;;;;41.90;29.23;;;;;;;15.64;78.66;100952.28;5021491;28;20040;-79
2021/09/09 05:11:50;;;;;;;25.73;19.17;;;;;;;19.12;65.65;100944.06;5017793;28;20029;-79
2021/09/09 05:14:16;;;;;;;38.85;27.13;;;;;;;16.57;74.12;100947.47;5003095;28;20160;-78
2021/09/09 05:16:41;;;;;;;36.30;27.35;;;;;;;16.01;77.09;100944.81;5035015;28;20554;-79
2021/09/09 05:19:08;;;;;;;37.50;27.90;;;;;;;15.80;77.60;100954.88;5001028;28;20051;-79
2021/09/09 05:21:33;;;;;;;35.67;27.98;;;;;;;16.22;76.32;100958.47;5003402;28;20029;-79
2021/09/09 05:23:59;;;;;;;37.85;29.13;;;;;;;16.79;74.43;100972.50;5005845;28;20037;-78
2021/09/09 05:26:24;;;;;;;17.20;11.52;;;;;;;22.15;59.45;100963.94;4985082;28;20044;-78
2021/09/09 05:28:50;;;;;;;11.75;10.18;;;;;;;22.77;57.47;100960.19;5015406;28;20053;-79
2021/09/09 05:31:15;;;;;;;14.90;10.75;;;;;;;22.01;57.01;100957.13;5000876;28;20332;-79
2021/09/09 05:33:40;;;;;;;12.73;9.52;;;;;;;22.73;58.86;100952.59;5028718;28;20040;-79
2021/09/09 05:36:06;;;;;;;11.70;9.93;;;;;;;23.00;57.69;100959.94;5029515;28;20044;-80
2021/09/09 05:38:31;;;;;;;10.57;9.40;;;;;;;23.02;57.11;100965.97;5008954;28;20034;-80
2021/09/09 05:40:57;;;;;;;15.80;14.10;;;;;;;22.79;57.17;100944.03;5031048;28;20271;-79
2021/09/09 05:43:22;;;;;;;14.57;12.57;;;;;;;21.81;60.51;100941.06;5026462;28;20386;-79
2021/09/09 05:45:48;;;;;;;12.52;11.27;;;;;;;22.08;59.78;100941.44;4993356;28;20025;-79
2021/09/09 05:48:13;;;;;;;13.10;11.07;;;;;;;21.89;60.24;100940.41;5046537;28;20044;-79
2021/09/09 05:50:38;;;;;;;26.73;16.85;;;;;;;21.56;59.77;100949.50;5007160;28;20026;-79
2021/09/09 05:53:04;;;;;;;11.70;10.48;;;;;;;23.04;56.56;100944.47;5021703;28;20045;-79
2021/09/09 05:55:29;;;;;;;12.27;9.60;;;;;;;22.55;57.97;100939.09;5005210;28;20047;-78
2021/09/09 05:57:55;;;;;;;10.85;9.00;;;;;;;22.85;56.81;100950.63;5023305;28;20050;-79
2021/09/09 06:00:21;;;;;;;18.63;12.52;;;;;;;23.03;56.13;100946.31;5001047;28;20304;-79
2021/09/09 06:02:47;;;;;;;11.88;10.05;;;;;;;23.35;54.95;100950.50;5008399;28;20037;-79
2021/09/09 06:05:13;;;;;;;27.98;20.63;;;;;;;20.72;60.99;100944.91;5011519;28;20060;-79
2021/09/09 06:07:38;;;;;;;15.48;9.45;;;;;;;22.73;57.17;100942.75;4982991;28;20038;-79
2021/09/09 06:10:04;;;;;;;11.30;9.68;;;;;;;23.41;54.69;100949.09;5001812;28;20243;-79
2021/09/09 06:12:30;;;;;;;11.10;10.02;;;;;;;23.46;54.40;100949.50;5015660;28;20029;-79
2021/09/09 06:14:56;;;;;;;19.50;15.63;;;;;;;22.18;55.48;100943.19;4989891;28;20040;-79
2021/09/09 06:17:22;;;;;;;19.75;16.60;;;;;;;22.48;56.92;100945.97;4982244;28;20152;-80
2021/09/09 06:19:47;;;;;;;18.10;15.50;;;;;;;22.84;53.31;100943.63;4999227;28;20049;-80
2021/09/09 06:22:13;;;;;;;18.48;13.77;;;;;;;22.62;53.55;100942.88;5006135;28;20040;-80
2021/09/09 06:24:38;;;;;;;25.40;19.55;;;;;;;19.94;61.98;100938.69;5028792;28;20032;-80
2021/09/09 06:27:03;;;;;;;22.30;15.82;;;;;;;21.53;59.44;100934.59;5008851;28;20025;-80
2021/09/09 06:29:29;;;;;;;26.17;19.65;;;;;;;21.27;57.55;100940.28;5005767;28;20088;-81
2021/09/09 06:31:54;;;;;;;27.75;19.63;;;;;;;20.90;58.33;100945.16;5032835;28;20029;-80
2021/09/09 06:34:20;;;;;;;24.92;18.60;;;;;;;21.08;58.27;100950.78;5014812;28;20049;-80
2021/09/09 06:36:45;;;;;;;21.02;18.73;;;;;;;21.21;58.06;100948.81;4986662;28;20033;-80
2021/09/09 06:39:11;;;;;;;26.98;19.48;;;;;;;21.12;58.11;100954.03;4997557;28;20167;-80
2021/09/09 06:41:36;;;;;;;23.75;16.60;;;;;;;22.46;54.90;100961.25;4992747;28;20213;-80
2021/09/09 06:44:02;;;;;;;16.17;10.73;;;;;;;23.43;54.65;100981.84;4986697;28;20038;-80
2021/09/09 06:46:27;;;;;;;20.38;13.82;;;;;;;23.85;53.22;100987.72;5001118;28;20026;-80
2021/09/09 06:48:53;;;;;;;17.73;10.13;;;;;;;24.04;52.46;100996.66;5002780;28;20262;-80
2021/09/09 06:51:21;;;;;;;22.77;12.52;;;;;;;24.07;52.75;100993.72;5027358;28;20052;-80
2021/09/09 06:53:47;;;;;;;18.58;12.45;;;;;;;23.99;52.82;100986.41;5001789;28;20034;-80
2021/09/09 06:56:12;;;;;;;16.40;12.30;;;;;;;24.09;52.96;100989.06;5009139;28;20043;-80
2021/09/09 06:58:37;;;;;;;15.40;11.75;;;;;;;23.64;53.42;100990.53;5007149;28;20042;-80
2021/09/09 07:01:03;;;;;;;19.38;11.70;;;;;;;24.13;52.46;100985.91;5021491;28;20033;-80
2021/09/09 07:03:30;;;;;;;13.60;10.52;;;;;;;24.20;52.76;100978.16;5024802;28;20042;-80
2021/09/09 07:05:56;;;;;;;15.52;10.25;;;;;;;24.44;51.96;100976.78;5020030;28;20141;-81
2021/09/09 07:08:21;;;;;;;16.98;12.20;;;;;;;24.29;51.87;100969.22;5001990;28;20033;-77
2021/09/09 07:10:47;;;;;;;19.13;15.55;;;;;;;23.79;52.95;100969.53;4984854;28;20494;-77
2021/09/09 07:13:12;;;;;;;17.05;13.68;;;;;;;24.56;50.76;100961.34;5003375;28;20061;-78
2021/09/09 07:15:38;;;;;;;15.77;10.32;;;;;;;24.75;51.14;100963.91;4996293;28;20225;-78
2021/09/09 07:18:04;;;;;;;21.25;13.88;;;;;;;24.87;49.01;100965.38;4984342;28;20029;-78
2021/09/09 07:20:29;;;;;;;24.00;10.70;;;;;;;24.74;50.77;100962.25;5000730;28;20099;-78
2021/09/09 07:22:54;;;;;;;15.57;9.48;;;;;;;25.16;50.11;100950.91;5001314;28;20037;-78
2021/09/09 07:25:20;;;;;;;27.35;16.35;;;;;;;24.20;49.50;100959.44;5000942;28;20222;-78
2021/09/09 07:27:45;;;;;;;14.45;10.35;;;;;;;24.86;50.20;100966.34;5016500;28;20045;-78
2021/09/09 07:30:14;;;;;;;19.10;11.60;;;;;;;24.97;49.80;100981.38;5021938;28;20403;-78
2021/09/09 07:32:39;;;;;;;15.57;11.60;;;;;;;24.76;50.49;100964.75;4986047;28;20037;-78
2021/09/09 07:35:05;;;;;;;16.05;10.43;;;;;;;25.02;50.20;100962.16;5025426;28;20049;-78
2021/09/09 07:37:31;;;;;;;12.98;9.60;;;;;;;25.35;49.26;100960.63;5003978;28;20727;-78
2021/09/09 07:39:56;;;;;;;15.13;10.23;;;;;;;25.47;49.18;100967.41;4984442;28;20089;-78
2021/09/09 07:42:22;;;;;;;12.85;9.25;;;;;;;25.39;49.15;100963.81;5010832;28;20037;-78
2021/09/09 07:44:47;;;;;;;12.75;9.25;;;;;;;25.13;49.95;100963.78;5019769;28;20045;-78
2021/09/09 07:47:12;;;;;;;14.40;11.75;;;;;;;25.43;48.92;100970.56;4994674;28;20289;-78
2021/09/09 07:49:38;;;;;;;14.70;10.90;;;;;;;25.07;49.73;100976.78;5001976;28;20042;-78
2021/09/09 07:52:03;;;;;;;14.38;10.48;;;;;;;25.62;48.24;100972.22;5002119;28;20045;-78
2021/09/09 07:54:29;;;;;;;10.25;8.70;;;;;;;25.60;48.62;100979.56;4985441;28;20046;-78
2021/09/09 07:56:54;;;;;;;12.52;11.40;;;;;;;25.43;48.91;100978.59;4995361;28;20398;-78
2021/09/09 07:59:20;;;;;;;13.57;10.60;;;;;;;26.11;47.25;100979.72;5001283;28;20044;-78
2021/09/09 08:01:46;;;;;;;19.70;12.00;;;;;;;25.80;47.80;100981.03;5001871;28;20237;-78
2021/09/09 08:04:17;;;;;;;10.00;8.93;;;;;;;25.68;48.47;100980.44;5004541;28;20065;-78
2021/09/09 08:06:43;;;;;;;16.05;11.65;;;;;;;26.40;46.64;100980.16;5002408;28;20064;-78
2021/09/09 08:09:09;;;;;;;10.30;9.30;;;;;;;25.51;48.78;100996.59;4991893;28;20038;-78
2021/09/09 08:11:34;;;;;;;22.52;15.50;;;;;;;26.48;46.98;100989.25;5030427;28;20033;-78
2021/09/09 08:14:00;;;;;;;17.25;11.18;;;;;;;26.16;47.15;100991.66;4986279;28;20021;-78
2021/09/09 08:16:25;;;;;;;13.88;11.48;;;;;;;26.44;46.46;100986.06;5005034;28;20045;-78
2021/09/09 08:18:51;;;;;;;10.75;8.73;;;;;;;26.00;47.70;101000.47;5017264;28;20108;-78
2021/09/09 08:21:16;;;;;;;11.45;9.00;;;;;;;25.13;49.77;101006.63;5005060;28;20088;-78
2021/09/09 08:23:42;;;;;;;15.23;9.70;;;;;;;25.03;50.22;101010.25;4991909;28;20045;-78
2021/09/09 08:26:08;;;;;;;14.43;12.50;;;;;;;25.15;50.20;101012.69;4992378;28;20072;-78
2021/09/09 08:28:33;;;;;;;25.10;13.20;;;;;;;25.22;49.51;101013.75;4990698;28;20209;-78
2021/09/09 08:30:59;;;;;;;23.42;11.20;;;;;;;25.26;49.61;101012.47;4988564;28;20045;-78
2021/09/09 08:33:25;;;;;;;12.32;11.05;;;;;;;25.40;49.12;100993.16;5020158;28;20036;-78
2021/09/09 08:35:50;;;;;;;14.00;9.43;;;;;;;25.13;49.59;100995.91;4987999;28;20034;-77
2021/09/09 08:38:16;;;;;;;11.95;9.60;;;;;;;25.34;49.52;101001.84;5013117;28;20246;-77
2021/09/09 08:40:42;;;;;;;11.95;10.70;;;;;;;25.94;47.98;101002.94;4996443;28;20029;-78
2021/09/09 08:43:07;;;;;;;11.02;9.48;;;;;;;27.15;44.78;100990.06;5008095;28;20037;-77
2021/09/09 08:45:33;;;;;;;11.63;10.55;;;;;;;27.80;43.47;100984.81;4987749;28;20041;-78
2021/09/09 08:48:01;;;;;;;10.07;9.05;;;;;;;27.75;43.78;100990.75;5012318;28;20030;-78
2021/09/09 08:50:27;;;;;;;13.95;9.40;;;;;;;27.75;43.08;100993.44;4988123;28;20048;-78
2021/09/09 08:52:52;;;;;;;10.98;9.63;;;;;;;27.82;43.29;100996.28;5013592;28;20025;-78
2021/09/09 08:55:19;;;;;;;10.32;9.07;;;;;;;27.81;43.14;100997.28;5010050;28;20347;-78
2021/09/09 08:57:44;;;;;;;10.88;9.45;;;;;;;27.99;42.99;100997.09;5024031;28;20202;-78
2021/09/09 09:00:10;;;;;;;10.38;9.40;;;;;;;28.16;42.93;101004.13;4992292;28;20028;-78
2021/09/09 09:02:49;;;;;;;9.80;8.90;;;;;;;28.73;41.22;101007.59;4981322;28;20049;-78
2021/09/09 09:05:15;;;;;;;15.48;13.50;;;;;;;29.42;39.72;101005.75;4989831;28;20033;-78
2021/09/09 09:07:40;;;;;;;13.32;9.07;;;;;;;28.58;41.58;101004.78;5006395;28;20104;-78
2021/09/09 09:10:08;;;;;;;18.17;14.55;;;;;;;30.16;38.86;101010.41;4987512;28;20220;-78
2021/09/09 09:12:42;;;;;;;10.95;9.43;;;;;;;28.38;42.23;101004.34;5000257;28;20033;-78
2021/09/09 09:15:28;;;;;;;9.70;8.95;;;;;;;28.41;42.15;101004.00;5002891;28;20026;-78
2021/09/09 09:18:04;;;;;;;10.30;9.43;;;;;;;27.56;43.87;101014.31;4983821;28;20026;-78
2021/09/09 09:20:47;;;;;;;10.07;9.18;;;;;;;29.05;40.70;101009.19;5023028;28;20080;-78
2021/09/09 09:23:21;;;;;;;11.13;10.00;;;;;;;28.75;41.64;101006.38;5001735;28;20317;-78
2021/09/09 09:25:50;;;;;;;13.98;9.63;;;;;;;28.47;42.30;101011.38;5006118;28;20084;-78
2021/09/09 09:28:36;;;;;;;13.30;10.48;;;;;;;26.49;46.63;101007.91;5004965;28;20604;-78
2021/09/09 09:31:06;;;;;;;15.00;13.50;;;;;;;27.88;44.42;101025.19;4999305;28;20033;-78
2021/09/09 09:33:42;;;;;;;11.18;9.95;;;;;;;28.51;42.21;101012.72;5005804;28;20045;-78
2021/09/09 09:36:23;;;;;;;10.57;9.55;;;;;;;28.58;42.36;101008.34;4998493;28;20025;-78
2021/09/09 09:38:50;;;;;;;11.48;10.13;;;;;;;29.60;41.97;101013.50;5016439;28;20045;-78
2021/09/09 09:41:20;;;;;;;13.95;9.82;;;;;;;26.88;46.16;101012.72;5008645;28;20296;-78
2021/09/09 09:43:53;;;;;;;23.05;16.95;;;;;;;27.53;45.78;101006.56;4989454;28;20017;-78
2021/09/09 09:46:28;;;;;;;10.30;9.25;;;;;;;27.10;45.83;101008.56;5006754;28;20044;-77
2021/09/09 09:48:53;;;;;;;15.18;12.18;;;;;;;27.00;46.43;101019.47;5007378;28;20026;-77
2021/09/09 09:51:42;;;;;;;10.55;9.57;;;;;;;27.74;44.30;101011.44;4995223;28;20025;-78
2021/09/09 09:54:14;;;;;;;21.67;14.48;;;;;;;28.32;46.53;101014.81;5024995;28;20093;-77
2021/09/09 09:56:40;;;;;;;10.75;9.68;;;;;;;28.52;42.36;101003.59;5009740;28;20033;-77
2021/09/09 09:59:07;;;;;;;10.32;8.80;;;;;;;27.36;45.67;101010.25;5025241;28;20065;-77
2021/09/09 10:01:33;;;;;;;11.43;10.32;;;;;;;28.29;47.43;101008.94;4988643;28;20050;-78
2021/09/09 10:04:03;;;;;;;17.42;12.00;;;;;;;28.38;43.94;101007.03;5008560;28;20321;-78
2021/09/09 10:06:30;;;;;;;11.23;10.02;;;;;;;27.81;45.19;101005.34;5010986;28;20272;-78
2021/09/09 10:08:55;;;;;;;28.73;22.60;;;;;;;28.65;43.76;101001.22;4988870;28;20198;-78
2021/09/09 10:11:21;;;;;;;17.52;12.45;;;;;;;28.75;43.15;101009.06;4988251;28;20029;-78
2021/09/09 10:13:46;;;;;;;15.63;12.18;;;;;;;29.38;45.02;101006.28;5022607;28;20033;-78
2021/09/09 10:16:15;;;;;;;13.63;11.50;;;;;;;28.72;43.18;100998.66;4988231;28;20060;-77
2021/09/09 10:18:42;;;;;;;16.20;11.32;;;;;;;27.82;45.64;101007.06;5005703;28;20050;-77
2021/09/09 10:21:08;;;;;;;18.52;12.00;;;;;;;28.18;47.65;101010.16;5005164;28;20053;-77
2021/09/09 10:23:34;;;;;;;17.15;12.75;;;;;;;29.22;42.62;101004.56;4987910;28;20030;-77
2021/09/09 10:25:59;;;;;;;14.30;11.98;;;;;;;27.82;46.12;101005.19;5004786;28;20029;-77
2021/09/09 10:28:43;;;;;;;21.55;15.15;;;;;;;28.65;44.36;101003.06;4991461;28;20040;-77
2021/09/09 10:31:16;;;;;;;17.27;13.25;;;;;;;29.31;43.58;101008.88;5004690;28;20050;-77
2021/09/09 10:33:51;;;;;;;19.55;12.30;;;;;;;28.43;44.93;101004.66;5004547;28;20046;-77
2021/09/09 10:36:39;;;;;;;23.60;16.15;;;;;;;28.41;45.24;101012.09;4989691;28;20033;-78
2021/09/09 10:39:04;;;;;;;;;;;;;;;27.88;46.13;101011.72;5024707;28;20071;-77
2021/09/09 10:41:30;;;;;;;20.30;11.70;;;;;;;27.65;47.05;101015.16;5015893;28;19909;-77
2021/09/09 10:44:00;;;;;;;17.35;13.13;;;;;;;27.65;47.90;101011.59;5018142;28;20041;-78
2021/09/09 10:46:32;;;;;;;17.35;13.27;;;;;;;27.71;47.38;101008.25;5004078;28;20312;-78
2021/09/09 10:49:08;;;;;;;17.50;12.70;;;;;;;27.20;49.24;101009.25;4992096;28;20038;-78
2021/09/09 10:51:34;;;;;;;16.85;11.98;;;;;;;26.71;50.55;101002.97;4972647;28;20034;-78
2021/09/09 10:54:00;;;;;;;18.75;13.32;;;;;;;27.33;48.83;101006.06;4993079;28;20244;-78
2021/09/09 10:56:36;;;;;;;19.48;13.95;;;;;;;27.18;49.57;101003.19;4987993;28;20034;-78
2021/09/09 10:59:23;;;;;;;20.05;10.80;;;;;;;26.65;51.00;101000.91;4990027;28;20025;-78
2021/09/09 11:01:48;;;;;;;15.15;12.30;;;;;;;27.27;49.00;101000.53;4987001;28;20037;-78
2021/09/09 11:04:35;;;;;;;21.67;14.35;;;;;;;27.18;51.96;100995.13;4987700;28;20025;-78
2021/09/09 11:07:01;;;;;;;16.60;11.57;;;;;;;26.86;50.52;100995.94;5022985;28;20041;-78
2021/09/09 11:09:27;;;;;;;13.68;10.45;;;;;;;26.81;51.90;100999.13;5007545;28;20252;-78
2021/09/09 11:12:03;;;;;;;15.48;10.57;;;;;;;26.30;52.18;101002.78;5007840;28;20037;-78
2021/09/09 11:14:30;;;;;;;13.80;9.48;;;;;;;26.05;52.51;101008.88;4987941;28;20037;-78